Terminal Aerodrome Forecast
Issued by NWS

Home | Current Version | Previous Version | Text Only | Print | Product List | Glossary On
Versions: 1 2 3 4 5 6 7 8 9 10 11 12 13 14 15 16 17 18 19 20
000
FTUS42 KTBW 180500
TAFPIE
TAF
KPIE 180536Z 1806/1906 08012KT P6SM SCT025 BKN100
     FM180800 09012KT P6SM FEW007 SCT015 BKN025
     FM181400 13013KT P6SM VCSH SCT015 BKN025
     FM181700 16014G24KT P6SM VCTS SCT020CB BKN035
     FM182000 19016G25KT P6SM VCTS SCT025CB BKN050
     FM190100 21013KT P6SM VCSH SCT010 BKN035=

USA.gov is the U.S. government's official web portal to all federal, state and local government web resources and services.